Time;durP1;ratioP1;P1;durP2;ratioP2;P2;SDS_P1;SDS_P2;PMS_P1;PMS_P2;Temp;Humidity;BMP_temperature;BMP_pressure;BME280_temperature;BME280_humidity;BME280_pressure;Samples;Min_cycle;Max_cycle;Signal;HPM_P1;HPM_P2
2023/07/10 00:02:10;;;;;;;24.13;15.70;;;19.40;99.90;;;;;;5043134;28;20014;-72
2023/07/10 00:04:36;;;;;;;21.90;15.10;;;19.40;99.90;;;;;;5042764;28;20036;-71
2023/07/10 00:07:01;;;;;;;22.60;16.25;;;19.50;99.90;;;;;;5044061;28;20052;-72
2023/07/10 00:09:27;;;;;;;22.20;15.50;;;19.50;99.90;;;;;;5043278;28;20028;-71
2023/07/10 00:11:53;;;;;;;22.92;15.38;;;19.40;99.90;;;;;;5041609;28;20037;-71
2023/07/10 00:14:21;;;;;;;24.92;17.35;;;19.40;99.90;;;;;;5043554;28;20026;-71
2023/07/10 00:16:48;;;;;;;25.98;16.67;;;19.50;99.90;;;;;;5042716;28;20093;-71
2023/07/10 00:19:14;;;;;;;26.52;17.23;;;19.40;99.90;;;;;;5043075;28;20039;-72
2023/07/10 00:21:40;;;;;;;26.38;18.45;;;19.40;99.90;;;;;;5042864;28;20033;-72
2023/07/10 00:24:06;;;;;;;27.23;18.58;;;19.40;99.90;;;;;;5042120;28;20021;-73
2023/07/10 00:26:32;;;;;;;23.73;18.15;;;19.40;99.90;;;;;;5042902;28;20017;-71
2023/07/10 00:29:00;;;;;;;28.50;19.13;;;19.40;99.90;;;;;;5043177;28;20032;-71
2023/07/10 00:31:26;;;;;;;29.77;19.08;;;19.40;99.90;;;;;;5042599;28;20041;-71
2023/07/10 00:33:52;;;;;;;29.00;19.35;;;19.40;99.90;;;;;;5043043;28;20028;-72
2023/07/10 00:36:31;;;;;;;25.70;19.30;;;19.40;99.90;;;;;;5041246;28;20028;-72
2023/07/10 00:39:04;;;;;;;30.23;19.00;;;19.40;99.90;;;;;;5042396;28;20037;-73
2023/07/10 00:41:34;;;;;;;29.35;18.73;;;19.40;99.90;;;;;;5043279;28;20025;-72
2023/07/10 00:44:01;;;;;;;28.13;18.92;;;19.40;99.90;;;;;;5041317;28;20033;-71
2023/07/10 00:46:50;;;;;;;29.38;19.15;;;19.30;99.90;;;;;;5042198;28;20030;-71
2023/07/10 00:49:40;;;;;;;29.90;19.63;;;19.40;99.90;;;;;;5042405;28;20403;-71
2023/07/10 00:52:27;;;;;;;29.27;19.40;;;19.40;99.90;;;;;;5041187;28;20046;-72
2023/07/10 00:54:56;;;;;;;25.65;16.73;;;19.40;99.90;;;;;;5042828;28;20112;-70
2023/07/10 00:57:33;;;;;;;25.88;20.48;;;19.40;99.90;;;;;;5040979;28;20082;-72
2023/07/10 00:59:59;;;;;;;24.15;19.38;;;19.40;99.90;;;;;;5042010;28;20127;-74
2023/07/10 01:02:25;;;;;;;26.08;21.30;;;19.40;99.90;;;;;;5042914;28;20460;-72
2023/07/10 01:05:02;;;;;;;29.27;22.98;;;19.40;99.90;;;;;;5041886;28;20027;-72
2023/07/10 01:07:33;;;;;;;35.95;25.52;;;19.30;99.90;;;;;;5042162;28;20494;-72
2023/07/10 01:10:06;;;;;;;35.03;24.58;;;19.30;99.90;;;;;;5041970;28;20068;-71
2023/07/10 01:12:32;;;;;;;29.42;23.50;;;19.30;99.90;;;;;;5041641;28;20541;-70
2023/07/10 01:14:58;;;;;;;34.78;25.65;;;19.30;99.90;;;;;;5039531;28;20037;-70
2023/07/10 01:17:24;;;;;;;34.53;25.02;;;19.30;99.90;;;;;;5041836;28;20021;-70
2023/07/10 01:19:54;;;;;;;30.60;24.23;;;19.30;99.90;;;;;;5041808;28;20021;-71
2023/07/10 01:22:20;;;;;;;34.13;22.65;;;19.30;99.90;;;;;;5040389;28;20095;-70
2023/07/10 01:24:51;;;;;;;33.50;24.23;;;19.30;99.90;;;;;;5040640;28;20450;-72
2023/07/10 01:27:17;;;;;;;33.65;25.50;;;19.30;99.90;;;;;;5041565;28;20112;-70
2023/07/10 01:29:47;;;;;;;30.02;24.27;;;19.30;99.90;;;;;;5041482;28;20017;-70
2023/07/10 01:32:17;;;;;;;28.50;22.45;;;19.30;99.90;;;;;;5040264;28;20037;-71
2023/07/10 01:34:51;;;;;;;34.35;23.67;;;19.30;99.90;;;;;;5041465;28;20022;-69
2023/07/10 01:37:19;;;;;;;30.77;24.20;;;19.30;99.90;;;;;;5041522;28;20028;-70
2023/07/10 01:39:48;;;;;;;28.40;21.65;;;19.30;99.90;;;;;;5041622;28;20060;-72
2023/07/10 01:42:14;;;;;;;34.95;25.25;;;19.40;99.90;;;;;;5041169;28;20085;-71
2023/07/10 01:44:42;;;;;;;31.65;23.67;;;19.30;99.90;;;;;;5041808;28;20028;-72
2023/07/10 01:47:10;;;;;;;31.40;24.23;;;19.30;99.90;;;;;;5041489;28;20032;-70
2023/07/10 01:49:44;;;;;;;36.45;25.90;;;19.40;99.90;;;;;;5041427;28;20045;-72
2023/07/10 01:52:12;;;;;;;34.78;25.00;;;19.30;99.90;;;;;;5040517;28;20044;-73
2023/07/10 01:54:38;;;;;;;39.53;26.27;;;19.30;99.90;;;;;;5041981;28;20029;-70
2023/07/10 01:57:05;;;;;;;30.92;23.95;;;19.20;99.90;;;;;;5040941;28;20474;-72
2023/07/10 01:59:31;;;;;;;27.85;21.85;;;19.20;99.90;;;;;;5040443;28;20033;-70
2023/07/10 02:01:57;;;;;;;45.88;28.90;;;19.20;99.90;;;;;;5041507;28;20029;-71
2023/07/10 02:04:24;;;;;;;35.75;26.15;;;19.20;99.90;;;;;;5040024;28;20025;-70
2023/07/10 02:06:50;;;;;;;41.72;27.35;;;19.20;99.90;;;;;;5041269;28;20052;-70
2023/07/10 02:09:15;;;;;;;40.63;29.25;;;19.20;99.90;;;;;;5040607;28;20025;-71
2023/07/10 02:11:41;;;;;;;44.97;31.05;;;19.20;99.90;;;;;;5040289;28;20037;-73
2023/07/10 02:14:08;;;;;;;41.13;28.17;;;19.20;99.90;;;;;;5041798;28;20041;-71
2023/07/10 02:16:35;;;;;;;47.10;30.70;;;19.10;99.90;;;;;;5039531;28;20093;-71
2023/07/10 02:19:01;;;;;;;44.88;30.15;;;19.10;99.90;;;;;;5041543;28;20034;-71
2023/07/10 02:21:27;;;;;;;51.28;32.72;;;19.10;99.90;;;;;;5040450;28;20060;-72
2023/07/10 02:23:52;;;;;;;60.63;32.83;;;19.10;99.90;;;;;;5043047;28;20059;-69
2023/07/10 02:26:18;;;;;;;48.13;30.05;;;19.10;99.90;;;;;;5045589;28;20021;-69
2023/07/10 02:28:44;;;;;;;51.63;30.30;;;19.10;99.90;;;;;;5045329;28;20033;-70
2023/07/10 02:31:10;;;;;;;56.35;30.58;;;19.10;99.90;;;;;;5044702;28;20102;-70
2023/07/10 02:33:36;;;;;;;55.97;30.98;;;19.10;99.90;;;;;;5045469;28;20025;-71
2023/07/10 02:36:02;;;;;;;50.75;30.35;;;19.10;99.90;;;;;;5045465;28;20087;-70
2023/07/10 02:38:28;;;;;;;53.72;28.80;;;19.10;99.90;;;;;;5043616;28;20030;-70
2023/07/10 02:40:55;;;;;;;54.30;30.40;;;19.10;99.90;;;;;;5043933;28;20085;-70
2023/07/10 02:43:20;;;;;;;56.58;32.03;;;19.20;99.90;;;;;;5044569;28;20064;-71
2023/07/10 02:45:46;;;;;;;67.75;33.40;;;19.20;99.90;;;;;;5044737;28;20013;-70
2023/07/10 02:48:11;;;;;;;57.22;31.95;;;19.20;99.90;;;;;;5045309;28;20033;-71
2023/07/10 02:50:37;;;;;;;57.53;31.42;;;19.20;99.90;;;;;;5044597;28;20498;-71
2023/07/10 02:53:02;;;;;;;51.53;29.73;;;19.20;99.90;;;;;;5044750;28;20038;-70
2023/07/10 02:55:28;;;;;;;58.65;33.35;;;19.20;99.90;;;;;;5045038;28;20026;-71
2023/07/10 02:57:53;;;;;;;53.97;30.55;;;19.20;99.90;;;;;;5043134;28;20025;-70
2023/07/10 03:00:19;;;;;;;55.10;31.98;;;19.30;99.90;;;;;;5044912;28;20060;-69
2023/07/10 03:02:45;;;;;;;57.88;33.00;;;19.20;99.90;;;;;;5043491;28;20040;-69
2023/07/10 03:05:10;;;;;;;55.22;31.35;;;19.20;99.90;;;;;;5044566;28;20028;-70
2023/07/10 03:07:36;;;;;;;58.88;33.55;;;19.20;99.90;;;;;;5044635;28;20065;-70
2023/07/10 03:10:02;;;;;;;67.32;36.08;;;19.20;99.90;;;;;;5044743;28;20030;-69
2023/07/10 03:12:28;;;;;;;58.85;33.25;;;19.20;99.90;;;;;;5044519;28;20064;-68
2023/07/10 03:14:53;;;;;;;57.53;34.35;;;19.20;99.90;;;;;;5044549;28;20077;-70
2023/07/10 03:17:19;;;;;;;64.38;35.40;;;19.20;99.90;;;;;;5044687;28;20026;-71
2023/07/10 03:19:46;;;;;;;60.20;34.03;;;19.20;99.90;;;;;;5043953;28;20036;-70
2023/07/10 03:22:12;;;;;;;67.90;36.53;;;19.20;99.90;;;;;;5043654;28;20033;-70
2023/07/10 03:24:38;;;;;;;67.32;35.22;;;19.20;99.90;;;;;;5044731;28;20067;-70
2023/07/10 03:27:04;;;;;;;84.93;36.85;;;19.10;99.90;;;;;;5042861;28;20092;-70
2023/07/10 03:29:29;;;;;;;70.60;34.17;;;19.20;99.90;;;;;;5043690;28;20081;-71
2023/07/10 03:31:55;;;;;;;76.07;36.33;;;19.20;99.90;;;;;;5044275;28;20079;-70
2023/07/10 03:34:21;;;;;;;75.50;38.35;;;19.20;99.90;;;;;;5043337;28;20048;-70
2023/07/10 03:36:46;;;;;;;77.75;39.03;;;19.20;99.90;;;;;;5043694;28;20433;-69
2023/07/10 03:39:13;;;;;;;68.65;37.75;;;19.20;99.90;;;;;;5042395;28;20055;-69
2023/07/10 03:41:38;;;;;;;74.43;38.67;;;19.20;99.90;;;;;;5044170;28;20048;-71
2023/07/10 03:44:04;;;;;;;62.17;36.85;;;19.20;99.90;;;;;;5044272;28;20029;-69
2023/07/10 03:46:30;;;;;;;64.30;38.58;;;19.10;99.90;;;;;;5044119;28;20044;-70
2023/07/10 03:48:56;;;;;;;63.97;38.00;;;19.10;99.90;;;;;;5042045;28;20038;-69
2023/07/10 03:51:21;;;;;;;65.35;36.60;;;19.20;99.90;;;;;;5042739;28;20045;-73
2023/07/10 03:53:48;;;;;;;60.25;37.63;;;19.20;99.90;;;;;;5043932;28;20028;-72
2023/07/10 03:56:13;;;;;;;62.03;37.22;;;19.10;99.90;;;;;;5043645;28;20037;-72
2023/07/10 03:58:42;;;;;;;69.32;39.08;;;19.10;99.90;;;;;;5043672;28;20675;-70
2023/07/10 04:01:08;;;;;;;65.90;39.50;;;19.10;99.90;;;;;;5043367;28;20024;-71
2023/07/10 04:03:36;;;;;;;57.75;37.50;;;19.10;99.90;;;;;;5043401;28;20033;-71
2023/07/10 04:06:03;;;;;;;60.92;35.40;;;19.20;99.90;;;;;;5042457;28;20492;-70
2023/07/10 04:08:34;;;;;;;53.20;35.35;;;19.20;99.90;;;;;;5043424;28;20027;-70
2023/07/10 04:11:03;;;;;;;58.13;34.15;;;19.20;99.90;;;;;;5042106;28;20059;-70
2023/07/10 04:13:29;;;;;;;59.85;35.33;;;19.20;99.90;;;;;;5043222;28;20026;-71
2023/07/10 04:15:59;;;;;;;59.47;36.17;;;19.10;99.90;;;;;;5041499;28;20391;-71
2023/07/10 04:18:29;;;;;;;47.15;33.22;;;19.20;99.90;;;;;;5043255;28;20049;-73
2023/07/10 04:20:56;;;;;;;45.70;31.52;;;19.10;99.90;;;;;;5042614;28;20013;-73
2023/07/10 04:23:21;;;;;;;53.03;33.85;;;19.10;99.90;;;;;;5042551;28;20068;-71
2023/07/10 04:25:48;;;;;;;48.92;32.38;;;19.10;99.90;;;;;;5042210;28;20029;-71
2023/07/10 04:28:13;;;;;;;44.50;31.77;;;19.10;99.90;;;;;;5042676;28;20093;-71
2023/07/10 04:30:39;;;;;;;61.85;33.95;;;19.10;99.90;;;;;;5042542;28;20060;-72
2023/07/10 04:33:08;;;;;;;52.10;31.83;;;19.10;99.90;;;;;;5043698;28;20029;-70
2023/07/10 04:35:34;;;;;;;59.67;33.25;;;19.10;99.90;;;;;;5043030;28;20028;-68
2023/07/10 04:37:59;;;;;;;58.33;33.83;;;19.10;99.90;;;;;;5042120;28;20054;-70
2023/07/10 04:40:25;;;;;;;61.33;34.90;;;19.10;99.90;;;;;;5043004;28;20018;-70
2023/07/10 04:42:51;;;;;;;59.80;33.95;;;19.10;99.90;;;;;;5042886;28;20170;-69
2023/07/10 04:45:17;;;;;;;104.45;37.65;;;19.10;99.90;;;;;;5042676;28;20022;-72
2023/07/10 04:47:43;;;;;;;100.28;38.42;;;19.10;99.90;;;;;;5042812;28;20060;-72
2023/07/10 04:50:09;;;;;;;178.02;47.05;;;19.10;99.90;;;;;;5042576;28;20402;-71
2023/07/10 04:52:34;;;;;;;591.28;81.30;;;19.00;99.90;;;;;;5042555;28;20059;-72
2023/07/10 04:55:00;;;;;;;97.38;38.55;;;19.00;99.90;;;;;;5040860;28;20034;-72
2023/07/10 04:57:26;;;;;;;99.53;39.38;;;19.00;99.90;;;;;;5042498;28;20029;-77
2023/07/10 04:59:51;;;;;;;74.30;34.65;;;19.00;99.90;;;;;;5040725;28;20032;-77
2023/07/10 05:02:17;;;;;;;84.10;32.22;;;19.00;99.90;;;;;;5041007;28;20083;-74
2023/07/10 05:04:42;;;;;;;77.38;28.77;;;19.00;99.90;;;;;;5044181;28;20096;-74
2023/07/10 05:07:09;;;;;;;41.40;23.60;;;18.90;99.90;;;;;;5041320;28;20028;-73
2023/07/10 05:09:35;;;;;;;40.40;22.98;;;18.90;99.90;;;;;;5042362;28;20013;-76
2023/07/10 05:12:00;;;;;;;48.45;23.15;;;18.90;99.90;;;;;;5039090;28;20135;-75
2023/07/10 05:14:26;;;;;;;46.55;22.42;;;18.90;99.90;;;;;;5042420;28;20449;-75
2023/07/10 05:16:52;;;;;;;43.00;23.88;;;18.80;99.90;;;;;;5042014;28;20117;-73
2023/07/10 05:19:17;;;;;;;53.92;25.35;;;18.80;99.90;;;;;;5040507;28;20017;-74
2023/07/10 05:21:43;;;;;;;41.10;23.08;;;18.80;99.90;;;;;;5042386;28;20113;-75
2023/07/10 05:24:09;;;;;;;46.72;23.23;;;18.70;99.90;;;;;;5041110;28;20478;-79
2023/07/10 05:26:34;;;;;;;39.97;22.80;;;18.80;99.90;;;;;;5040329;28;20029;-76
2023/07/10 05:29:00;;;;;;;47.05;24.25;;;18.70;99.90;;;;;;5040786;28;20021;-75
2023/07/10 05:31:26;;;;;;;58.70;28.33;;;18.70;99.90;;;;;;5041880;28;20093;-74
2023/07/10 05:33:52;;;;;;;50.20;26.38;;;18.70;99.90;;;;;;5041706;28;20085;-74
2023/07/10 05:36:18;;;;;;;52.28;27.35;;;18.80;99.90;;;;;;5040025;28;20085;-75
2023/07/10 05:38:48;;;;;;;61.97;29.30;;;18.80;99.90;;;;;;5040209;28;20057;-74
2023/07/10 05:41:18;;;;;;;62.38;29.77;;;18.80;99.90;;;;;;5041575;28;20032;-74
2023/07/10 05:43:44;;;;;;;60.40;30.67;;;18.70;99.90;;;;;;5040359;28;20026;-75
2023/07/10 05:46:11;;;;;;;63.78;31.55;;;18.80;99.90;;;;;;5042328;28;20034;-75
2023/07/10 05:48:37;;;;;;;85.55;34.15;;;18.80;99.90;;;;;;5041109;28;20029;-73
2023/07/10 05:51:03;;;;;;;66.82;30.98;;;18.80;99.90;;;;;;5040611;28;20129;-71
2023/07/10 05:53:29;;;;;;;67.07;32.22;;;18.80;99.90;;;;;;5041917;28;20112;-72
2023/07/10 05:55:56;;;;;;;64.22;29.95;;;18.80;99.90;;;;;;5040478;28;20517;-74
2023/07/10 05:58:24;;;;;;;58.15;28.75;;;18.80;99.90;;;;;;5040202;28;20029;-73
2023/07/10 06:00:52;;;;;;;65.00;28.42;;;18.80;99.90;;;;;;5041305;28;20021;-72
2023/07/10 06:03:18;;;;;;;53.33;27.17;;;18.80;99.90;;;;;;5040485;28;20053;-72
2023/07/10 06:05:56;;;;;;;61.58;28.80;;;18.80;99.90;;;;;;5041637;28;20029;-72
2023/07/10 06:08:23;;;;;;;56.53;27.85;;;18.90;99.90;;;;;;5041073;28;20033;-72
2023/07/10 06:10:49;;;;;;;51.92;27.08;;;18.90;99.90;;;;;;5040363;28;20033;-71
2023/07/10 06:13:15;;;;;;;57.63;27.08;;;19.00;99.90;;;;;;5040741;28;20037;-71
2023/07/10 06:15:46;;;;;;;57.90;27.00;;;19.10;99.90;;;;;;5041369;28;20022;-71
2023/07/10 06:18:11;;;;;;;49.50;26.23;;;19.10;99.90;;;;;;5039148;28;20029;-72
2023/07/10 06:20:37;;;;;;;46.75;24.02;;;19.20;99.90;;;;;;5042803;28;20025;-72
2023/07/10 06:23:02;;;;;;;45.17;23.90;;;19.40;99.90;;;;;;5039983;28;20022;-72
2023/07/10 06:25:28;;;;;;;50.92;24.48;;;19.40;99.90;;;;;;5039905;28;20089;-71
2023/07/10 06:27:53;;;;;;;39.17;21.42;;;19.50;99.90;;;;;;5041579;28;20029;-70
2023/07/10 06:30:19;;;;;;;41.45;21.73;;;19.60;99.90;;;;;;5041182;28;20039;-70
2023/07/10 06:32:45;;;;;;;40.58;20.42;;;19.60;99.90;;;;;;5040939;28;20060;-74
2023/07/10 06:35:13;;;;;;;39.20;20.63;;;19.60;99.90;;;;;;5040969;28;20025;-70
2023/07/10 06:37:40;;;;;;;35.38;19.48;;;19.50;99.90;;;;;;5040422;28;20076;-71
2023/07/10 06:40:09;;;;;;;29.15;17.00;;;19.50;99.90;;;;;;5039731;28;20060;-71
2023/07/10 06:42:35;;;;;;;32.78;17.70;;;19.50;99.90;;;;;;5041109;28;20029;-69
2023/07/10 06:45:01;;;;;;;30.27;16.85;;;19.50;99.90;;;;;;5039546;28;20509;-69
2023/07/10 06:47:26;;;;;;;41.90;20.23;;;19.50;99.90;;;;;;5041064;28;20035;-68
2023/07/10 06:49:52;;;;;;;33.97;17.27;;;19.50;99.90;;;;;;5040625;28;20080;-70
2023/07/10 06:52:17;;;;;;;40.08;19.80;;;19.40;99.90;;;;;;5040907;28;20047;-70
2023/07/10 06:54:43;;;;;;;31.98;15.88;;;19.50;99.90;;;;;;5040954;28;20470;-69
2023/07/10 06:57:08;;;;;;;27.88;13.75;;;19.50;99.90;;;;;;5041422;28;20028;-69
2023/07/10 06:59:34;;;;;;;33.17;13.73;;;19.50;99.90;;;;;;5040967;28;20021;-69
2023/07/10 07:01:59;;;;;;;26.33;14.43;;;19.40;99.90;;;;;;5041101;28;20029;-69
2023/07/10 07:04:25;;;;;;;26.45;13.45;;;19.40;99.90;;;;;;5040629;28;20532;-67
2023/07/10 07:06:51;;;;;;;22.35;13.73;;;19.40;99.90;;;;;;5040813;28;20052;-70
2023/07/10 07:09:16;;;;;;;28.13;13.90;;;19.50;99.90;;;;;;5040441;28;20033;-68
2023/07/10 07:11:42;;;;;;;22.15;11.02;;;19.50;99.90;;;;;;5043089;28;20041;-68
2023/07/10 07:14:07;;;;;;;19.90;9.90;;;19.50;99.90;;;;;;5044312;28;20032;-69
2023/07/10 07:16:33;;;;;;;24.48;10.57;;;19.50;99.90;;;;;;5044597;28;20024;-68
2023/07/10 07:18:58;;;;;;;19.35;9.82;;;19.50;99.90;;;;;;5043820;28;20424;-69
2023/07/10 07:21:24;;;;;;;15.88;9.52;;;19.60;99.90;;;;;;5044809;28;20036;-70
2023/07/10 07:23:49;;;;;;;19.80;9.70;;;19.60;99.90;;;;;;5044447;28;20441;-68
2023/07/10 07:26:15;;;;;;;20.48;10.60;;;19.60;99.90;;;;;;5044307;28;20040;-69
2023/07/10 07:28:41;;;;;;;20.88;10.43;;;19.60;99.90;;;;;;5043005;28;20049;-68
2023/07/10 07:31:06;;;;;;;14.05;8.90;;;19.60;99.90;;;;;;5044149;28;20038;-69
2023/07/10 07:33:32;;;;;;;14.23;9.63;;;19.60;99.90;;;;;;5044227;28;20029;-68
2023/07/10 07:36:02;;;;;;;18.92;9.63;;;19.60;99.90;;;;;;5044332;28;20334;-68
2023/07/10 07:38:28;;;;;;;21.85;10.70;;;19.60;99.90;;;;;;5042830;28;20029;-68
2023/07/10 07:40:57;;;;;;;19.00;9.20;;;19.60;99.90;;;;;;5044081;28;20083;-69
2023/07/10 07:43:22;;;;;;;14.88;8.10;;;19.70;99.90;;;;;;5043690;28;20112;-69
2023/07/10 07:45:55;;;;;;;14.35;7.35;;;19.80;99.90;;;;;;5043727;28;20049;-69
2023/07/10 07:48:22;;;;;;;13.90;7.53;;;19.90;99.90;;;;;;5044104;28;21412;-68
2023/07/10 07:51:01;;;;;;;12.57;6.20;;;20.00;99.90;;;;;;5043232;28;20054;-70
2023/07/10 07:53:29;;;;;;;12.73;6.30;;;20.10;99.90;;;;;;5043140;28;20675;-67
2023/07/10 07:55:54;;;;;;;13.02;6.40;;;20.00;99.90;;;;;;5043965;28;20014;-68
2023/07/10 07:58:20;;;;;;;12.00;5.88;;;20.00;99.90;;;;;;5043715;28;20033;-68
2023/07/10 08:00:45;;;;;;;14.00;5.72;;;20.00;99.90;;;;;;5043326;28;20033;-69
2023/07/10 08:03:11;;;;;;;10.30;6.15;;;20.00;99.90;;;;;;5044102;28;20021;-69
2023/07/10 08:05:37;;;;;;;11.88;6.20;;;20.10;99.90;;;;;;5043836;28;20426;-68
2023/07/10 08:08:05;;;;;;;13.15;6.45;;;20.10;99.90;;;;;;5043798;28;20041;-69
2023/07/10 08:10:35;;;;;;;10.20;5.50;;;20.10;99.90;;;;;;5043321;28;20097;-70
2023/07/10 08:13:03;;;;;;;9.82;5.32;;;20.10;99.90;;;;;;5043464;28;20055;-69
2023/07/10 08:15:29;;;;;;;10.85;5.30;;;20.10;99.90;;;;;;5042674;28;20014;-69
2023/07/10 08:17:55;;;;;;;8.02;3.80;;;20.20;99.90;;;;;;5043175;28;20022;-70
2023/07/10 08:20:20;;;;;;;7.20;4.70;;;20.20;99.90;;;;;;5043049;28;20025;-69
2023/07/10 08:22:46;;;;;;;9.55;4.72;;;20.20;99.90;;;;;;5042902;28;20022;-69
2023/07/10 08:25:11;;;;;;;10.20;4.95;;;20.20;99.90;;;;;;5042273;28;20088;-69
2023/07/10 08:27:37;;;;;;;10.85;6.20;;;20.20;99.90;;;;;;5041812;28;20029;-69
2023/07/10 08:30:03;;;;;;;10.68;5.93;;;20.20;99.90;;;;;;5042759;28;20030;-70
2023/07/10 08:32:28;;;;;;;11.45;5.68;;;20.20;99.90;;;;;;5043149;28;20120;-68
2023/07/10 08:34:54;;;;;;;12.52;5.90;;;20.30;99.90;;;;;;5042665;28;20025;-69
2023/07/10 08:37:19;;;;;;;8.57;4.80;;;20.50;99.90;;;;;;5041609;28;20029;-71
2023/07/10 08:39:45;;;;;;;9.57;4.78;;;20.50;99.90;;;;;;5041722;28;20044;-70
2023/07/10 08:42:20;;;;;;;9.18;4.82;;;20.50;99.90;;;;;;5042102;28;20104;-69
2023/07/10 08:44:48;;;;;;;10.82;4.72;;;20.40;99.90;;;;;;5042862;28;20037;-69
2023/07/10 08:47:18;;;;;;;8.23;4.93;;;20.40;99.90;;;;;;5041060;28;20049;-68
2023/07/10 08:49:54;;;;;;;8.13;4.97;;;20.40;99.90;;;;;;5041682;28;20061;-69
2023/07/10 08:52:35;;;;;;;8.85;5.05;;;20.50;99.90;;;;;;5040867;28;20036;-72
2023/07/10 08:55:00;;;;;;;10.23;5.55;;;20.60;99.90;;;;;;5041941;28;20449;-69
2023/07/10 08:57:33;;;;;;;8.82;4.93;;;20.60;99.90;;;;;;5042080;28;20041;-70
2023/07/10 09:00:09;;;;;;;8.43;4.53;;;20.60;99.90;;;;;;5044201;28;20024;-70
2023/07/10 09:02:51;;;;;;;8.55;4.15;;;20.50;99.90;;;;;;5039623;28;20097;-69
2023/07/10 09:05:29;;;;;;;11.82;4.32;;;20.50;99.90;;;;;;5040945;28;20036;-69
2023/07/10 09:07:58;;;;;;;9.70;4.53;;;20.60;99.90;;;;;;5041300;28;20029;-69
2023/07/10 09:10:32;;;;;;;8.30;4.10;;;20.60;99.90;;;;;;5041900;28;20030;-69
2023/07/10 09:13:00;;;;;;;12.85;4.90;;;20.60;99.90;;;;;;5041288;28;20116;-70
2023/07/10 09:15:34;;;;;;;8.65;3.63;;;20.70;99.90;;;;;;5040625;28;20056;-71
2023/07/10 09:18:07;;;;;;;8.43;3.67;;;20.80;99.90;;;;;;5042955;28;20368;-69
2023/07/10 09:20:35;;;;;;;6.90;4.47;;;20.80;99.90;;;;;;5042569;28;20041;-68
2023/07/10 09:23:04;;;;;;;7.72;4.10;;;20.90;99.90;;;;;;5041790;28;20056;-70
2023/07/10 09:25:33;;;;;;;7.13;4.05;;;20.90;99.90;;;;;;5041617;28;20022;-69
2023/07/10 09:27:58;;;;;;;9.63;4.00;;;20.90;99.90;;;;;;5041879;28;20163;-69
2023/07/10 09:30:35;;;;;;;7.80;4.35;;;21.10;99.90;;;;;;5041687;28;20025;-69
2023/07/10 09:33:06;;;;;;;8.90;4.20;;;21.30;99.90;;;;;;5040985;28;20025;-70
2023/07/10 09:35:35;;;;;;;6.18;4.50;;;21.40;99.90;;;;;;5042227;28;20040;-72
2023/07/10 09:38:01;;;;;;;6.43;3.97;;;21.40;99.90;;;;;;5041432;28;20022;-71
2023/07/10 09:40:43;;;;;;;7.00;4.18;;;21.30;99.90;;;;;;5042655;28;20028;-71
2023/07/10 09:43:21;;;;;;;10.43;4.70;;;21.30;99.90;;;;;;5041623;28;20029;-74
2023/07/10 09:45:49;;;;;;;7.57;3.42;;;21.20;99.90;;;;;;5041556;28;20029;-69
2023/07/10 09:48:23;;;;;;;5.95;3.05;;;21.30;99.90;;;;;;5041433;28;20111;-70
2023/07/10 09:50:51;;;;;;;5.47;2.88;;;21.50;99.90;;;;;;5040063;28;20049;-71
2023/07/10 09:53:45;;;;;;;7.18;2.60;;;21.50;99.90;;;;;;5041221;28;20053;-71
2023/07/10 09:56:23;;;;;;;6.93;3.03;;;21.70;99.90;;;;;;5039025;28;20033;-71
2023/07/10 09:58:52;;;;;;;4.32;2.25;;;21.80;99.90;;;;;;5041279;28;20097;-69
2023/07/10 10:01:17;;;;;;;7.60;2.40;;;21.80;99.90;;;;;;5041500;28;20124;-71
2023/07/10 10:03:43;;;;;;;4.35;2.17;;;21.80;99.90;;;;;;5041682;28;20026;-72
2023/07/10 10:06:23;;;;;;;5.07;2.08;;;22.00;99.90;;;;;;5040198;28;20028;-71
2023/07/10 10:08:51;;;;;;;6.90;2.45;;;22.10;99.90;;;;;;5040101;28;20029;-71
2023/07/10 10:11:17;;;;;;;6.07;2.70;;;22.20;99.90;;;;;;5041065;28;20036;-71
2023/07/10 10:13:51;;;;;;;6.60;2.38;;;22.20;99.90;;;;;;5040714;28;20054;-71
2023/07/10 10:16:27;;;;;;;6.43;2.60;;;22.20;99.90;;;;;;5041362;28;20026;-76
2023/07/10 10:19:09;;;;;;;5.65;2.47;;;22.30;99.90;;;;;;5040758;28;20108;-74
2023/07/10 10:21:35;;;;;;;7.60;2.33;;;22.40;99.90;;;;;;5039730;28;20424;-70
2023/07/10 10:24:05;;;;;;;5.18;2.33;;;22.40;99.90;;;;;;5040973;28;20021;-69
2023/07/10 10:26:53;;;;;;;5.13;1.75;;;22.50;99.90;;;;;;5039866;28;20034;-69
2023/07/10 10:29:42;;;;;;;5.07;1.30;;;22.60;99.90;;;;;;5040635;28;20490;-69
2023/07/10 10:32:08;;;;;;;3.83;1.60;;;22.60;99.90;;;;;;5040385;28;20041;-70
2023/07/10 10:34:48;;;;;;;5.55;1.67;;;22.70;99.90;;;;;;5040988;28;20085;-69
2023/07/10 10:37:34;;;;;;;5.82;2.00;;;22.80;99.90;;;;;;5039185;28;20068;-74
2023/07/10 10:40:13;;;;;;;4.78;1.92;;;22.90;99.90;;;;;;5040669;28;20044;-71
2023/07/10 10:42:50;;;;;;;7.38;2.05;;;23.00;99.90;;;;;;5041013;28;20473;-73
2023/07/10 10:45:33;;;;;;;3.88;1.60;;;23.10;99.90;;;;;;5043099;28;20108;-72
2023/07/10 10:48:11;;;;;;;3.63;1.67;;;23.30;99.90;;;;;;5044197;28;20025;-71
2023/07/10 10:50:55;;;;;;;4.50;1.73;;;23.40;99.90;;;;;;5043074;28;20081;-72
2023/07/10 10:53:46;;;;;;;4.95;1.80;;;23.50;99.90;;;;;;5045194;28;20065;-71
2023/07/10 10:56:31;;;;;;;5.45;1.90;;;23.50;99.90;;;;;;5044579;28;20038;-70
2023/07/10 10:59:28;;;;;;;7.82;1.80;;;23.50;99.90;;;;;;5044878;28;20064;-71
2023/07/10 11:02:31;;;;;;;7.05;1.92;;;23.60;99.90;;;;;;5043010;28;20026;-70
2023/07/10 11:05:29;;;;;;;7.10;2.20;;;23.80;99.90;;;;;;5043551;28;20060;-68
2023/07/10 11:07:59;;;;;;;6.03;1.55;;;24.00;99.90;;;;;;5044672;28;20022;-68
2023/07/10 11:10:36;;;;;;;5.72;1.80;;;24.20;99.90;;;;;;5044346;28;20029;-70
2023/07/10 11:13:03;;;;;;;6.15;1.60;;;24.30;99.90;;;;;;5044655;28;20030;-68
2023/07/10 11:15:33;;;;;;;9.23;2.20;;;24.40;99.90;;;;;;5042636;28;20114;-68
2023/07/10 11:17:59;;;;;;;5.32;1.80;;;24.50;99.90;;;;;;5044112;28;20021;-69
2023/07/10 11:20:26;;;;;;;7.65;2.10;;;24.70;99.90;;;;;;5043179;28;21475;-68
2023/07/10 11:22:54;;;;;;;7.07;1.95;;;24.90;99.90;;;;;;5044316;28;20014;-70
2023/07/10 11:25:33;;;;;;;8.32;2.40;;;24.80;99.90;;;;;;5043657;28;20112;-71
2023/07/10 11:28:19;;;;;;;8.02;2.47;;;24.70;99.90;;;;;;5044349;28;20025;-70
2023/07/10 11:30:45;;;;;;;5.57;1.95;;;24.40;99.90;;;;;;5043208;28;20099;-70
2023/07/10 11:33:20;;;;;;;6.82;2.00;;;24.20;99.90;;;;;;5044694;28;20029;-70
2023/07/10 11:36:15;;;;;;;8.30;2.13;;;24.20;99.90;;;;;;5044136;28;20061;-68
2023/07/10 11:39:00;;;;;;;;;;;24.20;99.90;;;;;;5044760;28;20041;-72
2023/07/10 11:41:32;;;;;;;5.43;2.20;;;24.30;99.90;;;;;;5011585;28;19909;-69
2023/07/10 11:44:19;;;;;;;9.30;2.20;;;24.70;99.90;;;;;;5043602;28;20025;-69
2023/07/10 11:46:57;;;;;;;6.95;2.15;;;24.80;99.90;;;;;;5043604;28;20048;-70
2023/07/10 11:49:46;;;;;;;8.13;2.03;;;25.00;99.90;;;;;;5042384;28;20053;-70
2023/07/10 11:52:14;;;;;;;10.95;2.25;;;25.00;99.90;;;;;;5042979;28;20038;-69
2023/07/10 11:54:46;;;;;;;7.78;2.00;;;25.10;99.90;;;;;;5043307;28;20029;-72
2023/07/10 11:57:15;;;;;;;6.70;2.05;;;25.10;99.90;;;;;;5041464;28;20417;-69
2023/07/10 11:59:54;;;;;;;8.30;2.13;;;25.30;99.90;;;;;;5043762;28;20638;-68
2023/07/10 12:02:27;;;;;;;5.55;1.90;;;25.40;99.90;;;;;;5043989;28;20021;-72
2023/07/10 12:04:53;;;;;;;5.95;2.10;;;25.60;99.90;;;;;;5042993;28;20123;-68
2023/07/10 12:07:18;;;;;;;8.52;2.72;;;25.50;99.90;;;;;;5042665;28;20038;-69
2023/07/10 12:09:52;;;;;;;3.55;1.60;;;25.40;99.90;;;;;;5042217;28;20033;-71
2023/07/10 12:12:18;;;;;;;;;;;25.40;99.90;;;;;;5043986;28;20049;-68
2023/07/10 12:14:44;;;;;;;7.55;2.08;;;25.30;99.90;;;;;;5042047;28;19912;-68
2023/07/10 12:17:16;;;;;;;6.00;2.00;;;25.30;99.90;;;;;;5043903;28;20032;-69
2023/07/10 12:19:44;;;;;;;7.50;2.15;;;25.10;99.90;;;;;;5043090;28;20096;-69
2023/07/10 12:22:24;;;;;;;8.25;2.30;;;24.90;99.90;;;;;;5041875;28;20037;-69
2023/07/10 12:24:55;;;;;;;5.43;1.98;;;24.60;99.90;;;;;;5043406;28;20363;-68
2023/07/10 12:27:22;;;;;;;6.47;2.10;;;24.70;99.90;;;;;;5041879;28;20030;-69
2023/07/10 12:29:53;;;;;;;4.93;1.70;;;25.00;99.90;;;;;;5043714;28;20036;-69
2023/07/10 12:32:19;;;;;;;9.02;2.17;;;25.30;99.90;;;;;;5042944;28;20030;-67
2023/07/10 12:34:46;;;;;;;8.02;2.00;;;25.60;99.90;;;;;;5043287;28;20014;-68
2023/07/10 12:37:14;;;;;;;6.75;2.15;;;25.80;99.90;;;;;;5043291;28;20041;-70
2023/07/10 12:39:40;;;;;;;5.00;1.70;;;25.90;99.90;;;;;;5042630;28;20022;-70
2023/07/10 12:42:23;;;;;;;6.07;1.92;;;26.00;99.90;;;;;;5043140;28;20052;-72
2023/07/10 12:44:48;;;;;;;3.45;1.80;;;26.20;99.90;;;;;;5043405;28;20022;-69
2023/07/10 12:47:14;;;;;;;8.68;2.35;;;26.30;99.90;;;;;;5043072;28;20026;-71